Time;durP1;ratioP1;P1;durP2;ratioP2;P2;SDS_P1;SDS_P2;PMS_P1;PMS_P2;Temp;Humidity;BMP_temperature;BMP_pressure;BME280_temperature;BME280_humidity;BME280_pressure;Samples;Min_cycle;Max_cycle;Signal;HPM_P1;HPM_P2
2023/06/20 00:00:50;;;;;;;5.73;4.70;;;;;;;;;;5077279;28;20414;-74
2023/06/20 00:03:17;;;;;;;4.47;3.50;;;;;;;;;;5076409;28;20887;-74
2023/06/20 00:05:43;;;;;;;5.10;4.60;;;;;;;;;;5077016;28;20435;-74
2023/06/20 00:08:09;;;;;;;4.83;4.37;;;;;;;;;;5077026;28;20415;-74
2023/06/20 00:10:35;;;;;;;4.90;3.80;;;;;;;;;;5076860;28;20400;-74
2023/06/20 00:13:01;;;;;;;5.27;4.77;;;;;;;;;;5077096;28;20447;-74
2023/06/20 00:15:28;;;;;;;5.53;4.53;;;;;;;;;;5076637;28;20426;-74
2023/06/20 00:17:55;;;;;;;5.47;4.80;;;;;;;;;;5076942;28;20423;-74
2023/06/20 00:20:21;;;;;;;5.70;4.90;;;;;;;;;;5076692;28;20422;-74
2023/06/20 00:22:50;;;;;;;5.40;4.73;;;;;;;;;;5076790;28;20414;-74
2023/06/20 00:25:16;;;;;;;5.30;3.97;;;;;;;;;;5076612;28;20508;-74
2023/06/20 00:27:42;;;;;;;6.07;4.50;;;;;;;;;;5076780;28;20443;-73
2023/06/20 00:30:09;;;;;;;7.30;5.03;;;;;;;;;;5076611;28;20381;-74
2023/06/20 00:32:35;;;;;;;7.07;5.17;;;;;;;;;;5076509;28;20756;-74
2023/06/20 00:35:01;;;;;;;6.97;4.77;;;;;;;;;;5076584;28;20404;-73
2023/06/20 00:37:27;;;;;;;6.57;5.00;;;;;;;;;;5056818;28;20456;-74
2023/06/20 00:39:53;;;;;;;6.17;4.93;;;;;;;;;;5055913;28;20514;-73
2023/06/20 00:42:20;;;;;;;7.00;5.30;;;;;;;;;;5056400;28;20466;-74
2023/06/20 00:44:46;;;;;;;6.70;5.20;;;;;;;;;;5056710;28;20400;-74
2023/06/20 00:47:12;;;;;;;7.20;4.67;;;;;;;;;;5056368;28;20423;-74
2023/06/20 00:49:39;;;;;;;8.00;5.33;;;;;;;;;;5056635;28;20405;-73
2023/06/20 00:52:05;;;;;;;7.40;4.77;;;;;;;;;;5056254;28;20803;-74
2023/06/20 00:54:31;;;;;;;6.73;5.03;;;;;;;;;;5056711;28;20411;-74
2023/06/20 00:56:58;;;;;;;7.90;5.13;;;;;;;;;;5056784;28;20451;-73
2023/06/20 00:59:24;;;;;;;8.97;5.30;;;;;;;;;;5055987;28;20460;-74
2023/06/20 01:01:50;;;;;;;7.57;5.00;;;;;;;;;;5056354;28;20412;-74
2023/06/20 01:04:16;;;;;;;7.80;5.40;;;;;;;;;;5056149;28;20502;-73
2023/06/20 01:06:48;;;;;;;6.40;4.93;;;;;;;;;;5055947;28;20937;-74
2023/06/20 01:09:14;;;;;;;5.90;5.30;;;;;;;;;;5056297;28;20408;-74
2023/06/20 01:11:40;;;;;;;6.10;5.47;;;;;;;;;;5056508;28;20404;-74
2023/06/20 01:14:12;;;;;;;5.57;5.00;;;;;;;;;;5056642;28;20407;-73
2023/06/20 01:16:45;;;;;;;7.73;5.60;;;;;;;;;;5056419;28;20415;-74
2023/06/20 01:19:17;;;;;;;5.10;4.60;;;;;;;;;;5055978;28;20463;-74
2023/06/20 01:21:45;;;;;;;6.17;4.80;;;;;;;;;;5056517;28;20743;-74
2023/06/20 01:24:15;;;;;;;8.23;4.30;;;;;;;;;;5055783;28;20770;-73
2023/06/20 01:27:02;;;;;;;6.63;5.07;;;;;;;;;;5056274;28;20399;-74
2023/06/20 01:29:32;;;;;;;6.53;5.13;;;;;;;;;;5006019;28;20907;-74
2023/06/20 01:32:01;;;;;;;5.80;5.20;;;;;;;;;;5056473;28;20412;-73
2023/06/20 01:34:29;;;;;;;6.30;4.73;;;;;;;;;;5038239;28;20415;-74
2023/06/20 01:36:57;;;;;;;5.90;5.20;;;;;;;;;;5055574;28;20513;-73
2023/06/20 01:39:27;;;;;;;5.03;4.63;;;;;;;;;;5055352;28;20562;-72
2023/06/20 01:41:56;;;;;;;5.67;5.00;;;;;;;;;;5055662;28;20798;-72
2023/06/20 01:44:22;;;;;;;7.47;4.80;;;;;;;;;;5055626;28;20507;-72
2023/06/20 01:46:49;;;;;;;7.90;5.80;;;;;;;;;;5055486;28;20456;-72
2023/06/20 01:49:16;;;;;;;8.43;5.50;;;;;;;;;;5055451;28;20408;-72
2023/06/20 01:51:43;;;;;;;6.40;5.80;;;;;;;;;;5055711;28;20478;-72
2023/06/20 01:54:10;;;;;;;8.50;5.83;;;;;;;;;;5055716;28;20497;-74
2023/06/20 01:56:36;;;;;;;5.80;5.20;;;;;;;;;;5055622;28;20407;-72
2023/06/20 01:59:03;;;;;;;7.27;6.37;;;;;;;;;;5055414;28;20923;-72
2023/06/20 02:01:29;;;;;;;7.93;5.37;;;;;;;;;;5055398;28;20412;-72
2023/06/20 02:03:56;;;;;;;6.80;5.80;;;;;;;;;;5055667;28;20404;-72
2023/06/20 02:06:23;;;;;;;6.90;5.73;;;;;;;;;;5055611;28;20491;-72
2023/06/20 02:08:50;;;;;;;7.97;5.47;;;;;;;;;;5055236;28;20416;-72
2023/06/20 02:11:17;;;;;;;7.30;5.30;;;;;;;;;;5055471;28;20404;-72
2023/06/20 02:13:43;;;;;;;8.90;5.80;;;;;;;;;;5055348;28;20503;-72
2023/06/20 02:16:11;;;;;;;6.20;5.60;;;;;;;;;;5055181;28;20400;-72
2023/06/20 02:18:37;;;;;;;7.80;5.83;;;;;;;;;;5055390;28;20550;-72
2023/06/20 02:21:07;;;;;;;10.00;5.20;;;;;;;;;;5055220;28;20410;-72
2023/06/20 02:23:34;;;;;;;8.87;5.90;;;;;;;;;;5054955;28;20439;-72
2023/06/20 02:26:08;;;;;;;7.77;6.23;;;;;;;;;;5055051;28;20892;-72
2023/06/20 02:28:40;;;;;;;10.47;6.03;;;;;;;;;;5055155;28;20423;-72
2023/06/20 02:31:08;;;;;;;11.30;6.13;;;;;;;;;;5055010;28;20400;-72
2023/06/20 02:33:36;;;;;;;7.03;6.33;;;;;;;;;;5054974;28;20892;-72
2023/06/20 02:36:03;;;;;;;6.73;6.03;;;;;;;;;;5054811;28;20804;-73
2023/06/20 02:38:31;;;;;;;7.00;5.80;;;;;;;;;;5054864;28;20463;-72
2023/06/20 02:40:57;;;;;;;9.47;7.00;;;;;;;;;;5055156;28;20896;-72
2023/06/20 02:43:23;;;;;;;9.37;6.50;;;;;;;;;;5054865;28;20400;-72
2023/06/20 02:45:53;;;;;;;6.87;6.27;;;;;;;;;;5055020;28;20946;-72
2023/06/20 02:48:27;;;;;;;7.50;6.10;;;;;;;;;;5054929;28;20477;-72
2023/06/20 02:50:53;;;;;;;11.17;7.40;;;;;;;;;;5054997;28;20411;-72
2023/06/20 02:53:25;;;;;;;8.67;6.50;;;;;;;;;;5055125;28;20416;-72
2023/06/20 02:56:00;;;;;;;7.37;6.60;;;;;;;;;;5055122;28;20400;-72
2023/06/20 02:58:27;;;;;;;7.33;6.63;;;;;;;;;;5054452;28;20506;-73
2023/06/20 03:00:54;;;;;;;8.97;7.67;;;;;;;;;;5054429;28;20416;-72
2023/06/20 03:03:33;;;;;;;7.50;6.70;;;;;;;;;;5054550;28;20408;-72
2023/06/20 03:05:59;;;;;;;6.60;5.73;;;;;;;;;;5055155;28;20469;-72
2023/06/20 03:08:27;;;;;;;8.20;7.40;;;;;;;;;;5054424;28;20439;-72
2023/06/20 03:10:54;;;;;;;8.13;7.33;;;;;;;;;;5054755;28;20450;-72
2023/06/20 03:13:21;;;;;;;8.40;7.50;;;;;;;;;;5054720;28;20462;-72
2023/06/20 03:15:49;;;;;;;8.23;6.97;;;;;;;;;;5054670;28;20417;-72
2023/06/20 03:18:15;;;;;;;7.83;7.03;;;;;;;;;;5054373;28;20458;-72
2023/06/20 03:20:43;;;;;;;10.73;7.63;;;;;;;;;;5054979;28;20412;-72
2023/06/20 03:23:09;;;;;;;8.50;7.63;;;;;;;;;;5054806;28;20507;-72
2023/06/20 03:25:35;;;;;;;8.60;7.77;;;;;;;;;;5054635;28;20439;-72
2023/06/20 03:28:01;;;;;;;9.80;8.03;;;;;;;;;;5054761;28;20421;-72
2023/06/20 03:30:27;;;;;;;8.60;7.70;;;;;;;;;;5054531;28;20408;-73
2023/06/20 03:32:53;;;;;;;8.40;7.60;;;;;;;;;;5055320;28;20412;-72
2023/06/20 03:35:19;;;;;;;9.10;8.20;;;;;;;;;;5054504;28;20408;-72
2023/06/20 03:37:45;;;;;;;8.63;7.83;;;;;;;;;;5055018;28;20433;-72
2023/06/20 03:40:11;;;;;;;9.17;8.30;;;;;;;;;;5055303;28;20412;-72
2023/06/20 03:42:38;;;;;;;8.63;7.40;;;;;;;;;;5054543;28;20522;-72
2023/06/20 03:45:04;;;;;;;9.10;8.20;;;;;;;;;;5037189;28;20461;-72
2023/06/20 03:47:30;;;;;;;8.90;7.70;;;;;;;;;;5054842;28;20427;-73
2023/06/20 03:49:56;;;;;;;9.13;8.13;;;;;;;;;;5054602;28;20882;-73
2023/06/20 03:52:22;;;;;;;8.40;7.70;;;;;;;;;;5054915;28;20416;-72
2023/06/20 03:54:48;;;;;;;9.40;8.50;;;;;;;;;;5036876;28;20387;-72
2023/06/20 03:57:14;;;;;;;9.83;8.93;;;;;;;;;;5054775;28;20379;-72
2023/06/20 03:59:40;;;;;;;8.43;7.73;;;;;;;;;;5054361;28;20467;-72
2023/06/20 04:02:06;;;;;;;9.27;8.40;;;;;;;;;;5054848;28;20412;-72
2023/06/20 04:04:32;;;;;;;9.27;8.37;;;;;;;;;;5054428;28;20498;-72
2023/06/20 04:06:59;;;;;;;10.67;9.60;;;;;;;;;;5054533;28;20411;-72
2023/06/20 04:09:26;;;;;;;10.23;9.10;;;;;;;;;;5054235;28;20434;-72
2023/06/20 04:11:53;;;;;;;9.43;8.50;;;;;;;;;;5054069;28;20432;-73
2023/06/20 04:14:19;;;;;;;9.00;8.00;;;;;;;;;;5056308;28;20419;-73
2023/06/20 04:16:47;;;;;;;9.60;8.60;;;;;;;;;;5058329;28;20424;-72
2023/06/20 04:19:14;;;;;;;9.47;8.30;;;;;;;;;;5058027;28;20459;-72
2023/06/20 04:21:40;;;;;;;10.23;9.10;;;;;;;;;;5057950;28;20507;-72
2023/06/20 04:24:06;;;;;;;10.10;9.13;;;;;;;;;;5058356;28;20447;-72
2023/06/20 04:26:32;;;;;;;10.00;9.10;;;;;;;;;;5057370;28;20408;-72
2023/06/20 04:28:58;;;;;;;8.47;7.67;;;;;;;;;;5058417;28;20499;-72
2023/06/20 04:31:24;;;;;;;8.80;7.90;;;;;;;;;;5057632;28;20387;-72
2023/06/20 04:33:51;;;;;;;8.90;8.03;;;;;;;;;;5058267;28;20400;-72
2023/06/20 04:36:17;;;;;;;10.60;8.90;;;;;;;;;;5058073;28;20863;-72
2023/06/20 04:38:43;;;;;;;9.30;8.40;;;;;;;;;;5057386;28;20455;-72
2023/06/20 04:41:09;;;;;;;8.93;8.13;;;;;;;;;;5057569;28;20595;-72
2023/06/20 04:43:36;;;;;;;12.10;10.13;;;;;;;;;;5057526;28;20442;-72
2023/06/20 04:46:02;;;;;;;12.27;9.70;;;;;;;;;;5057503;28;20400;-73
2023/06/20 04:48:35;;;;;;;13.10;9.70;;;;;;;;;;5057346;28;20879;-73
2023/06/20 04:51:02;;;;;;;9.57;8.67;;;;;;;;;;5057381;28;20415;-73
2023/06/20 04:53:28;;;;;;;10.50;9.30;;;;;;;;;;5057210;28;20767;-73
2023/06/20 04:55:54;;;;;;;11.90;9.07;;;;;;;;;;5057603;28;20765;-73
2023/06/20 04:58:20;;;;;;;8.93;8.13;;;;;;;;;;5057350;28;20821;-75
2023/06/20 05:00:46;;;;;;;9.57;8.63;;;;;;;;;;5057138;28;20412;-73
2023/06/20 05:03:12;;;;;;;11.27;8.90;;;;;;;;;;5057279;28;20400;-73
2023/06/20 05:05:40;;;;;;;9.00;8.20;;;;;;;;;;5057313;28;20752;-73
2023/06/20 05:08:06;;;;;;;9.40;8.50;;;;;;;;;;5057080;28;20815;-74
2023/06/20 05:10:32;;;;;;;8.17;7.37;;;;;;;;;;5056682;28;20903;-73
2023/06/20 05:12:58;;;;;;;8.37;7.60;;;;;;;;;;5056861;28;20428;-73
2023/06/20 05:15:24;;;;;;;8.83;7.93;;;;;;;;;;5056737;28;20439;-73
2023/06/20 05:17:51;;;;;;;9.73;7.87;;;;;;;;;;5057122;28;20882;-73
2023/06/20 05:20:17;;;;;;;8.87;7.97;;;;;;;;;;5056932;28;20467;-73
2023/06/20 05:22:43;;;;;;;10.27;8.90;;;;;;;;;;5056667;28;20408;-74
2023/06/20 05:25:09;;;;;;;9.27;8.20;;;;;;;;;;5056169;28;20491;-73
2023/06/20 05:27:35;;;;;;;11.07;8.77;;;;;;;;;;5056410;28;20409;-74
2023/06/20 05:30:01;;;;;;;9.37;8.37;;;;;;;;;;5056941;28;20404;-73
2023/06/20 05:32:27;;;;;;;8.90;8.10;;;;;;;;;;5056278;28;20954;-74
2023/06/20 05:34:53;;;;;;;9.87;8.50;;;;;;;;;;5056494;28;20447;-73
2023/06/20 05:37:19;;;;;;;10.23;9.33;;;;;;;;;;5056137;28;20459;-73
2023/06/20 05:39:45;;;;;;;10.30;9.13;;;;;;;;;;5055982;28;20495;-73
2023/06/20 05:42:12;;;;;;;9.70;8.77;;;;;;;;;;5056931;28;20408;-73
2023/06/20 05:44:38;;;;;;;10.70;9.70;;;;;;;;;;5056182;28;20389;-74
2023/06/20 05:47:04;;;;;;;9.30;8.50;;;;;;;;;;5056255;28;20866;-74
2023/06/20 05:49:31;;;;;;;9.57;8.67;;;;;;;;;;5056411;28;20412;-74
2023/06/20 05:52:00;;;;;;;9.00;8.17;;;;;;;;;;5056458;28;20404;-74
2023/06/20 05:54:26;;;;;;;12.27;8.03;;;;;;;;;;5055917;28;20478;-74
2023/06/20 05:56:55;;;;;;;9.17;7.90;;;;;;;;;;5056450;28;20409;-74
2023/06/20 05:59:21;;;;;;;9.40;7.53;;;;;;;;;;5056146;28;20423;-74
2023/06/20 06:01:47;;;;;;;8.47;7.67;;;;;;;;;;5055638;28;20432;-74
2023/06/20 06:04:14;;;;;;;8.77;8.07;;;;;;;;;;5056372;28;20478;-74
2023/06/20 06:06:40;;;;;;;8.00;7.30;;;;;;;;;;5055620;28;20428;-74
2023/06/20 06:09:06;;;;;;;10.20;8.23;;;;;;;;;;5055865;28;20839;-74
2023/06/20 06:11:32;;;;;;;10.40;7.60;;;;;;;;;;5055700;28;20428;-74
2023/06/20 06:13:58;;;;;;;10.03;8.13;;;;;;;;;;5055804;28;20454;-74
2023/06/20 06:16:24;;;;;;;9.03;8.30;;;;;;;;;;5056338;28;20428;-74
2023/06/20 06:18:50;;;;;;;8.37;7.50;;;;;;;;;;5055962;28;20558;-74
2023/06/20 06:21:16;;;;;;;12.20;7.17;;;;;;;;;;5055460;28;20440;-74
2023/06/20 06:23:43;;;;;;;9.13;7.90;;;;;;;;;;5055181;28;20403;-74
2023/06/20 06:26:09;;;;;;;8.10;7.40;;;;;;;;;;5055595;28;20412;-74
2023/06/20 06:28:35;;;;;;;10.33;8.10;;;;;;;;;;5055767;28;20477;-74
2023/06/20 06:31:05;;;;;;;10.00;7.87;;;;;;;;;;5055490;28;20404;-74
2023/06/20 06:33:32;;;;;;;11.43;8.90;;;;;;;;;;5055109;28;20400;-74
2023/06/20 06:35:59;;;;;;;9.57;8.67;;;;;;;;;;5054368;28;20474;-74
2023/06/20 06:38:26;;;;;;;11.43;8.73;;;;;;;;;;5055381;28;20526;-74
2023/06/20 06:40:54;;;;;;;9.03;8.13;;;;;;;;;;5055493;28;20419;-74
2023/06/20 06:43:20;;;;;;;10.83;9.20;;;;;;;;;;5054849;28;20416;-74
2023/06/20 06:45:46;;;;;;;10.30;7.73;;;;;;;;;;5055141;28;21027;-74
2023/06/20 06:48:12;;;;;;;8.70;7.77;;;;;;;;;;5054650;28;20462;-74
2023/06/20 06:50:38;;;;;;;8.73;7.73;;;;;;;;;;5055094;28;20462;-74
2023/06/20 06:53:05;;;;;;;8.30;7.50;;;;;;;;;;5055449;28;20454;-74
2023/06/20 06:55:31;;;;;;;11.43;8.73;;;;;;;;;;5055109;28;20458;-74
2023/06/20 06:57:57;;;;;;;8.53;7.33;;;;;;;;;;5055150;28;20404;-74
2023/06/20 07:00:23;;;;;;;8.37;7.43;;;;;;;;;;5055329;28;20416;-73
2023/06/20 07:02:49;;;;;;;10.17;8.27;;;;;;;;;;5054659;28;20767;-74
2023/06/20 07:05:15;;;;;;;9.37;8.47;;;;;;;;;;5055410;28;20415;-74
2023/06/20 07:07:41;;;;;;;9.20;7.70;;;;;;;;;;5054609;28;20453;-74
2023/06/20 07:10:09;;;;;;;8.47;7.70;;;;;;;;;;5055107;28;20495;-73
2023/06/20 07:12:35;;;;;;;7.33;6.10;;;;;;;;;;5054838;28;20506;-74
2023/06/20 07:15:01;;;;;;;8.43;7.50;;;;;;;;;;5055180;28;20390;-74
2023/06/20 07:17:27;;;;;;;8.93;7.00;;;;;;;;;;5055074;28;20736;-74
2023/06/20 07:19:53;;;;;;;6.40;5.87;;;;;;;;;;5054764;28;20555;-74
2023/06/20 07:22:19;;;;;;;6.77;5.50;;;;;;;;;;5054971;28;20942;-74
2023/06/20 07:24:46;;;;;;;6.03;5.43;;;;;;;;;;5054686;28;20396;-74
2023/06/20 07:27:12;;;;;;;7.47;5.83;;;;;;;;;;5055298;28;20404;-74
2023/06/20 07:29:38;;;;;;;6.70;5.70;;;;;;;;;;5037203;28;20416;-74
2023/06/20 07:32:04;;;;;;;6.10;5.60;;;;;;;;;;5054491;28;20412;-74
2023/06/20 07:34:30;;;;;;;10.17;6.07;;;;;;;;;;5054930;28;20420;-74
2023/06/20 07:36:56;;;;;;;6.77;5.37;;;;;;;;;;5054960;28;20471;-74
2023/06/20 07:39:22;;;;;;;6.13;5.53;;;;;;;;;;5054747;28;20467;-73
2023/06/20 07:41:48;;;;;;;6.27;5.00;;;;;;;;;;5054627;28;20404;-74
2023/06/20 07:44:14;;;;;;;7.03;6.30;;;;;;;;;;5055001;28;20409;-74
2023/06/20 07:46:40;;;;;;;6.40;5.73;;;;;;;;;;5054337;28;20439;-74
2023/06/20 07:49:06;;;;;;;6.77;6.10;;;;;;;;;;5058370;28;20945;-74
2023/06/20 07:51:33;;;;;;;9.97;6.03;;;;;;;;;;5058764;28;20396;-74
2023/06/20 07:54:00;;;;;;;5.80;5.30;;;;;;;;;;5058640;28;20903;-74
2023/06/20 07:56:26;;;;;;;7.43;5.80;;;;;;;;;;5058564;28;20502;-73
2023/06/20 07:58:52;;;;;;;5.40;5.00;;;;;;;;;;5058176;28;20932;-74
2023/06/20 08:01:19;;;;;;;5.80;5.30;;;;;;;;;;5058728;28;20487;-74
2023/06/20 08:03:45;;;;;;;6.73;6.13;;;;;;;;;;5058315;28;20441;-74
2023/06/20 08:06:11;;;;;;;8.10;5.93;;;;;;;;;;5058927;28;20407;-74
2023/06/20 08:08:38;;;;;;;6.30;5.30;;;;;;;;;;5058033;28;20483;-74
2023/06/20 08:11:04;;;;;;;7.77;5.27;;;;;;;;;;5057878;28;20415;-74
2023/06/20 08:13:30;;;;;;;5.80;5.27;;;;;;;;;;5058188;28;20419;-74
2023/06/20 08:15:56;;;;;;;8.53;5.00;;;;;;;;;;5057821;28;20522;-74
2023/06/20 08:18:22;;;;;;;4.63;4.23;;;;;;;;;;5057994;28;20984;-74
2023/06/20 08:20:49;;;;;;;5.50;4.97;;;;;;;;;;5057595;28;20404;-74
2023/06/20 08:23:25;;;;;;;4.87;4.40;;;;;;;;;;5057626;28;20526;-74
2023/06/20 08:25:51;;;;;;;4.20;3.90;;;;;;;;;;5056894;28;20411;-74
2023/06/20 08:28:17;;;;;;;4.17;3.73;;;;;;;;;;5057420;28;20780;-74
2023/06/20 08:30:43;;;;;;;4.83;4.50;;;;;;;;;;5057350;28;20507;-74
2023/06/20 08:33:09;;;;;;;4.77;4.37;;;;;;;;;;5057570;28;20569;-74
2023/06/20 08:35:35;;;;;;;6.67;4.70;;;;;;;;;;5056804;28;20499;-75
2023/06/20 08:38:01;;;;;;;5.27;4.87;;;;;;;;;;5057190;28;20491;-74
2023/06/20 08:40:28;;;;;;;7.13;4.80;;;;;;;;;;5057451;28;20415;-74
2023/06/20 08:42:57;;;;;;;4.00;3.70;;;;;;;;;;5056920;28;20418;-74
2023/06/20 08:45:23;;;;;;;6.07;4.17;;;;;;;;;;5057537;28;20397;-74
2023/06/20 08:47:49;;;;;;;4.80;4.20;;;;;;;;;;5057087;28;20404;-74
2023/06/20 08:50:15;;;;;;;4.77;4.20;;;;;;;;;;5057345;28;20416;-73
2023/06/20 08:52:47;;;;;;;5.30;4.87;;;;;;;;;;5056721;28;20451;-74
2023/06/20 08:55:14;;;;;;;4.93;4.53;;;;;;;;;;5056469;28;20434;-74
2023/06/20 08:57:40;;;;;;;8.17;4.63;;;;;;;;;;5056484;28;20469;-74
2023/06/20 09:00:09;;;;;;;4.97;4.07;;;;;;;;;;5055767;28;20455;-74
2023/06/20 09:02:35;;;;;;;6.00;4.70;;;;;;;;;;5056487;28;20455;-76
2023/06/20 09:05:02;;;;;;;5.90;5.40;;;;;;;;;;5056773;28;20412;-74
2023/06/20 09:07:34;;;;;;;6.80;4.67;;;;;;;;;;5056419;28;20404;-74
2023/06/20 09:10:01;;;;;;;4.70;4.40;;;;;;;;;;5056032;28;20776;-74
2023/06/20 09:12:27;;;;;;;5.13;4.83;;;;;;;;;;5056164;28;20872;-74
2023/06/20 09:14:53;;;;;;;5.60;5.10;;;;;;;;;;5055911;28;20447;-74
2023/06/20 09:17:19;;;;;;;5.63;5.17;;;;;;;;;;5056257;28;20423;-74
2023/06/20 09:19:47;;;;;;;5.47;4.70;;;;;;;;;;5055540;28;20470;-74
2023/06/20 09:22:13;;;;;;;4.20;3.90;;;;;;;;;;5055695;28;20422;-74
2023/06/20 09:24:44;;;;;;;4.40;4.10;;;;;;;;;;5055107;28;20400;-74
2023/06/20 09:27:10;;;;;;;4.90;4.50;;;;;;;;;;5055832;28;20415;-74
2023/06/20 09:30:00;;;;;;;4.67;4.23;;;;;;;;;;5055485;28;20412;-76
2023/06/20 09:32:26;;;;;;;4.83;3.87;;;;;;;;;;5055374;28;20388;-74
2023/06/20 09:34:52;;;;;;;3.90;3.60;;;;;;;;;;5055049;28;20400;-74
2023/06/20 09:37:18;;;;;;;5.10;4.70;;;;;;;;;;5055223;28;20464;-74
2023/06/20 09:39:45;;;;;;;5.17;4.00;;;;;;;;;;5054817;28;20619;-74
2023/06/20 09:42:12;;;;;;;4.57;4.20;;;;;;;;;;5055144;28;20476;-74
2023/06/20 09:44:38;;;;;;;4.73;4.33;;;;;;;;;;5054696;28;20408;-74
2023/06/20 09:47:04;;;;;;;4.20;3.90;;;;;;;;;;5054804;28;20416;-72
2023/06/20 09:49:31;;;;;;;3.83;3.53;;;;;;;;;;5054355;28;20408;-73
2023/06/20 09:52:03;;;;;;;3.90;3.60;;;;;;;;;;5054254;28;20483;-73
2023/06/20 09:54:38;;;;;;;3.50;3.30;;;;;;;;;;5054561;28;20404;-73
2023/06/20 09:57:10;;;;;;;4.50;4.00;;;;;;;;;;5054495;28;20434;-73
2023/06/20 09:59:38;;;;;;;4.60;4.10;;;;;;;;;;5054050;28;20499;-72
2023/06/20 10:02:07;;;;;;;3.63;3.33;;;;;;;;;;5053901;28;20415;-73
2023/06/20 10:04:42;;;;;;;6.20;4.00;;;;;;;;;;5053957;28;20420;-72
2023/06/20 10:07:08;;;;;;;4.03;3.73;;;;;;;;;;5054196;28;20426;-72
2023/06/20 10:09:35;;;;;;;4.03;3.73;;;;;;;;;;5036077;28;20438;-72
2023/06/20 10:12:02;;;;;;;4.47;3.90;;;;;;;;;;5053522;28;20789;-72
2023/06/20 10:14:28;;;;;;;3.47;3.27;;;;;;;;;;5053945;28;20431;-72
2023/06/20 10:16:54;;;;;;;4.07;3.77;;;;;;;;;;5053649;28;20424;-73
2023/06/20 10:19:20;;;;;;;4.43;3.80;;;;;;;;;;5053565;28;20460;-73
2023/06/20 10:21:57;;;;;;;3.63;3.43;;;;;;;;;;5053504;28;20445;-73
2023/06/20 10:24:25;;;;;;;3.80;3.50;;;;;;;;;;5053931;28;20776;-73
2023/06/20 10:26:53;;;;;;;3.53;3.23;;;;;;;;;;5053233;28;20773;-73
2023/06/20 10:29:19;;;;;;;3.90;3.60;;;;;;;;;;5053912;28;20407;-73
2023/06/20 10:31:56;;;;;;;4.20;3.30;;;;;;;;;;5053478;28;20419;-73
2023/06/20 10:34:29;;;;;;;3.47;3.13;;;;;;;;;;5053540;28;20495;-73
2023/06/20 10:37:08;;;;;;;4.57;3.77;;;;;;;;;;5052913;28;20920;-73
2023/06/20 10:39:34;;;;;;;3.60;3.40;;;;;;;;;;5053537;28;20439;-73
2023/06/20 10:42:07;;;;;;;4.07;3.77;;;;;;;;;;5053185;28;20535;-73
2023/06/20 10:44:33;;;;;;;4.10;3.80;;;;;;;;;;5053388;28;20404;-73
2023/06/20 10:46:59;;;;;;;3.47;3.23;;;;;;;;;;5053372;28;20416;-73
2023/06/20 10:49:25;;;;;;;3.60;3.30;;;;;;;;;;5053574;28;20419;-73
2023/06/20 10:51:55;;;;;;;7.93;3.60;;;;;;;;;;5053001;28;20553;-73
2023/06/20 10:54:21;;;;;;;3.37;3.10;;;;;;;;;;5053172;28;20873;-73
2023/06/20 10:56:48;;;;;;;3.63;3.33;;;;;;;;;;5053025;28;20431;-73
2023/06/20 10:59:15;;;;;;;4.03;3.73;;;;;;;;;;5053217;28;20460;-73
2023/06/20 11:01:41;;;;;;;3.60;3.30;;;;;;;;;;5053175;28;20412;-73
2023/06/20 11:04:08;;;;;;;3.50;3.20;;;;;;;;;;5053270;28;20828;-74
2023/06/20 11:06:34;;;;;;;3.47;2.93;;;;;;;;;;5052910;28;20400;-75
2023/06/20 11:09:00;;;;;;;3.07;2.87;;;;;;;;;;5052613;28;20933;-73
2023/06/20 11:11:37;;;;;;;4.10;3.70;;;;;;;;;;5053264;28;20408;-73
2023/06/20 11:14:13;;;;;;;3.17;2.97;;;;;;;;;;5052849;28;20407;-75
2023/06/20 11:16:40;;;;;;;3.33;3.13;;;;;;;;;;5053209;28;20408;-75
2023/06/20 11:19:06;;;;;;;3.73;3.53;;;;;;;;;;5052523;28;20460;-75
2023/06/20 11:21:32;;;;;;;3.43;3.13;;;;;;;;;;5053187;28;20734;-74
2023/06/20 11:23:59;;;;;;;3.30;3.10;;;;;;;;;;5056147;28;20457;-75
2023/06/20 11:26:31;;;;;;;2.87;2.67;;;;;;;;;;5057082;28;20428;-75
2023/06/20 11:28:58;;;;;;;3.13;2.93;;;;;;;;;;5056766;28;20822;-75
2023/06/20 11:31:24;;;;;;;4.23;3.07;;;;;;;;;;5056810;28;20404;-75
2023/06/20 11:34:01;;;;;;;3.20;2.90;;;;;;;;;;5056449;28;20426;-75
2023/06/20 11:36:27;;;;;;;3.33;3.13;;;;;;;;;;5056923;28;20824;-75
2023/06/20 11:38:54;;;;;;;3.03;2.77;;;;;;;;;;5056374;28;20820;-75
2023/06/20 11:41:30;;;;;;;2.80;2.60;;;;;;;;;;5056749;28;20790;-75
2023/06/20 11:43:56;;;;;;;3.07;2.80;;;;;;;;;;5038660;28;20927;-75
2023/06/20 11:46:22;;;;;;;3.17;2.87;;;;;;;;;;5056497;28;20466;-73
2023/06/20 11:48:52;;;;;;;2.83;2.63;;;;;;;;;;5056402;28;20431;-74
2023/06/20 11:51:21;;;;;;;3.57;3.00;;;;;;;;;;5056551;28;20443;-73
2023/06/20 11:53:48;;;;;;;3.53;3.10;;;;;;;;;;5056212;28;20447;-74
2023/06/20 11:56:15;;;;;;;4.50;3.20;;;;;;;;;;5056230;28;20526;-73
2023/06/20 11:58:47;;;;;;;3.50;3.03;;;;;;;;;;5056051;28;20471;-73
2023/06/20 12:01:17;;;;;;;3.43;3.13;;;;;;;;;;5056315;28;20412;-73
2023/06/20 12:03:44;;;;;;;3.00;2.80;;;;;;;;;;5056285;28;20415;-75
2023/06/20 12:06:29;;;;;;;2.70;2.50;;;;;;;;;;5056088;28;20400;-75
2023/06/20 12:09:09;;;;;;;3.60;3.20;;;;;;;;;;5055783;28;20911;-74
2023/06/20 12:11:38;;;;;;;2.80;2.60;;;;;;;;;;5056104;28;20423;-74
2023/06/20 12:14:04;;;;;;;3.00;2.80;;;;;;;;;;5055923;28;20408;-74
2023/06/20 12:16:31;;;;;;;3.10;2.90;;;;;;;;;;5055964;28;20412;-73
2023/06/20 12:18:59;;;;;;;3.30;3.10;;;;;;;;;;5055582;28;20463;-74
2023/06/20 12:21:26;;;;;;;3.00;2.80;;;;;;;;;;5055872;28;20514;-74
2023/06/20 12:23:52;;;;;;;3.63;2.70;;;;;;;;;;5055678;28;20407;-74
2023/06/20 12:26:18;;;;;;;2.87;2.67;;;;;;;;;;5055875;28;20404;-74
2023/06/20 12:28:45;;;;;;;3.20;3.00;;;;;;;;;;5055814;28;20404;-74
2023/06/20 12:31:12;;;;;;;3.23;3.03;;;;;;;;;;5055654;28;20439;-74
2023/06/20 12:33:38;;;;;;;3.20;3.00;;;;;;;;;;5054986;28;20932;-73
2023/06/20 12:36:04;;;;;;;3.40;3.10;;;;;;;;;;5054875;28;20455;-74
2023/06/20 12:38:31;;;;;;;3.00;2.80;;;;;;;;;;5056101;28;20521;-74
2023/06/20 12:40:57;;;;;;;3.67;3.37;;;;;;;;;;5055341;28;20412;-73
2023/06/20 12:43:23;;;;;;;2.90;2.70;;;;;;;;;;5055679;28;20448;-74
2023/06/20 12:45:50;;;;;;;2.90;2.70;;;;;;;;;;5055190;28;20450;-76
2023/06/20 12:48:16;;;;;;;3.10;2.90;;;;;;;;;;5055617;28;20412;-74
2023/06/20 12:50:42;;;;;;;3.27;3.07;;;;;;;;;;5055228;28;20411;-74
2023/06/20 12:53:08;;;;;;;3.57;3.27;;;;;;;;;;5055123;28;20407;-74
2023/06/20 12:55:34;;;;;;;3.30;3.10;;;;;;;;;;5055270;28;20401;-74
2023/06/20 12:58:01;;;;;;;3.50;3.20;;;;;;;;;;5055064;28;20400;-73
2023/06/20 13:00:30;;;;;;;3.37;3.17;;;;;;;;;;5055201;28;20558;-73
2023/06/20 13:02:56;;;;;;;3.13;2.93;;;;;;;;;;5055090;28;20412;-74
2023/06/20 13:05:22;;;;;;;3.40;3.10;;;;;;;;;;5054961;28;20396;-73
2023/06/20 13:07:48;;;;;;;3.40;3.10;;;;;;;;;;5054929;28;20752;-73
2023/06/20 13:10:17;;;;;;;4.23;2.80;;;;;;;;;;5054814;28;20419;-74
2023/06/20 13:12:45;;;;;;;2.93;2.73;;;;;;;;;;5054757;28;20411;-73
2023/06/20 13:15:12;;;;;;;3.80;2.87;;;;;;;;;;5054585;28;20776;-74
2023/06/20 13:17:38;;;;;;;3.67;3.37;;;;;;;;;;5055144;28;20435;-74
2023/06/20 13:20:06;;;;;;;3.40;3.20;;;;;;;;;;5054222;28;20463;-73
2023/06/20 13:22:32;;;;;;;3.37;3.07;;;;;;;;;;5054877;28;20530;-73
2023/06/20 13:24:58;;;;;;;3.23;3.03;;;;;;;;;;5054482;28;20456;-74
2023/06/20 13:27:27;;;;;;;2.80;2.60;;;;;;;;;;5054545;28;21099;-73
2023/06/20 13:30:00;;;;;;;3.30;3.10;;;;;;;;;;5054440;28;20431;-74
2023/06/20 13:32:26;;;;;;;3.17;2.87;;;;;;;;;;5054477;28;20404;-74
2023/06/20 13:34:52;;;;;;;3.60;3.30;;;;;;;;;;5054176;28;20957;-74
2023/06/20 13:37:18;;;;;;;3.13;2.93;;;;;;;;;;5054642;28;20499;-74
2023/06/20 13:39:44;;;;;;;3.50;3.20;;;;;;;;;;5054230;28;20910;-74
2023/06/20 13:42:10;;;;;;;5.97;3.30;;;;;;;;;;5054023;28;20501;-74
2023/06/20 13:44:36;;;;;;;4.00;2.53;;;;;;;;;;5054332;28;20775;-74
2023/06/20 13:47:03;;;;;;;3.53;3.23;;;;;;;;;;5054211;28;20416;-74
2023/06/20 13:49:29;;;;;;;3.23;3.03;;;;;;;;;;5054315;28;20427;-74
2023/06/20 13:51:55;;;;;;;3.50;2.77;;;;;;;;;;5054082;28;20416;-74
2023/06/20 13:54:22;;;;;;;3.60;3.13;;;;;;;;;;5054438;28;20432;-74
2023/06/20 13:56:48;;;;;;;3.23;3.00;;;;;;;;;;5054132;28;20400;-74
2023/06/20 13:59:14;;;;;;;2.90;2.70;;;;;;;;;;5053694;28;20706;-74
2023/06/20 14:01:41;;;;;;;3.20;3.00;;;;;;;;;;5053707;28;20400;-73
2023/06/20 14:04:07;;;;;;;3.40;3.10;;;;;;;;;;5053712;28;20770;-74
2023/06/20 14:06:33;;;;;;;3.73;3.20;;;;;;;;;;5053884;28;20432;-74
2023/06/20 14:09:00;;;;;;;5.33;2.90;;;;;;;;;;5053603;28;20404;-74
2023/06/20 14:11:26;;;;;;;3.50;2.53;;;;;;;;;;5053849;28;20400;-74
2023/06/20 14:13:53;;;;;;;3.40;2.80;;;;;;;;;;5054875;28;20405;-74
2023/06/20 14:16:19;;;;;;;3.60;3.30;;;;;;;;;;5053355;28;20515;-74
2023/06/20 14:18:45;;;;;;;3.30;2.80;;;;;;;;;;5053730;28;20459;-74
2023/06/20 14:21:12;;;;;;;3.43;2.87;;;;;;;;;;5053497;28;20749;-74
2023/06/20 14:23:39;;;;;;;3.43;3.10;;;;;;;;;;5053787;28;20408;-74
2023/06/20 14:26:05;;;;;;;3.57;3.27;;;;;;;;;;5053313;28;20465;-74
2023/06/20 14:28:31;;;;;;;3.53;3.23;;;;;;;;;;5053695;28;20408;-75
2023/06/20 14:30:57;;;;;;;4.10;3.80;;;;;;;;;;5053269;28;20957;-74
2023/06/20 14:33:24;;;;;;;3.77;3.47;;;;;;;;;;5053568;28;20416;-74
2023/06/20 14:35:50;;;;;;;3.70;3.00;;;;;;;;;;5053429;28;20845;-74
2023/06/20 14:38:16;;;;;;;3.90;3.50;;;;;;;;;;5053025;28;20742;-74
2023/06/20 14:40:42;;;;;;;3.90;3.60;;;;;;;;;;5053514;28;20416;-74